Time;durP1;ratioP1;P1;durP2;ratioP2;P2;SDS_P1;SDS_P2;PMS_P1;PMS_P2;Temp;Humidity;BMP_temperature;BMP_pressure;BME280_temperature;BME280_humidity;BME280_pressure;Samples;Min_cycle;Max_cycle;Signal;HPM_P1;HPM_P2
2022/10/25 00:01:24;;;;;;;3.65;1.27;;;12.40;99.90;;;;;;5045280;28;20445;-70
2022/10/25 00:03:52;;;;;;;5.07;1.23;;;12.30;99.90;;;;;;5052235;28;20388;-70
2022/10/25 00:06:19;;;;;;;3.17;1.15;;;12.30;99.90;;;;;;5039310;28;20461;-69
2022/10/25 00:08:47;;;;;;;2.33;0.90;;;12.30;99.90;;;;;;5045123;28;20376;-69
2022/10/25 00:11:25;;;;;;;2.95;1.20;;;12.40;99.90;;;;;;5038817;28;20050;-70
2022/10/25 00:13:54;;;;;;;2.60;1.10;;;12.30;99.90;;;;;;5037434;28;20033;-70
2022/10/25 00:16:25;;;;;;;4.97;1.23;;;12.30;99.90;;;;;;5039570;28;20040;-69
2022/10/25 00:18:53;;;;;;;5.88;1.25;;;12.30;99.90;;;;;;5044835;28;20048;-69
2022/10/25 00:21:21;;;;;;;2.05;1.13;;;12.30;99.90;;;;;;5049269;28;20128;-70
2022/10/25 00:23:49;;;;;;;2.20;1.00;;;12.30;99.90;;;;;;5049333;28;20071;-69
2022/10/25 00:26:17;;;;;;;5.03;0.90;;;12.20;99.90;;;;;;5038268;28;20037;-70
2022/10/25 00:28:45;;;;;;;3.60;0.90;;;12.20;99.90;;;;;;5049825;28;20440;-70
2022/10/25 00:31:15;;;;;;;3.28;1.00;;;12.20;99.90;;;;;;5040732;28;20492;-69
2022/10/25 00:33:43;;;;;;;2.30;1.00;;;12.20;99.90;;;;;;5032995;28;20042;-70
2022/10/25 00:36:14;;;;;;;4.75;1.40;;;12.20;99.90;;;;;;5040304;28;20095;-69
2022/10/25 00:38:42;;;;;;;1.58;0.80;;;12.20;99.90;;;;;;5034081;28;20045;-69
2022/10/25 00:41:11;;;;;;;2.75;0.90;;;12.20;99.90;;;;;;5045560;28;20036;-70
2022/10/25 00:43:40;;;;;;;3.90;1.17;;;12.20;99.90;;;;;;5045425;28;20049;-69
2022/10/25 00:46:23;;;;;;;4.22;1.20;;;12.30;99.90;;;;;;5040003;28;20046;-70
2022/10/25 00:49:01;;;;;;;2.53;1.08;;;12.20;99.90;;;;;;5048468;28;20036;-69
2022/10/25 00:51:36;;;;;;;2.40;0.80;;;12.30;99.90;;;;;;5042157;28;20495;-69
2022/10/25 00:54:05;;;;;;;3.22;1.00;;;12.20;99.90;;;;;;5041367;28;20048;-69
2022/10/25 00:56:37;;;;;;;4.25;1.17;;;12.20;99.90;;;;;;5044435;28;20484;-70
2022/10/25 00:59:09;;;;;;;4.07;1.00;;;12.20;99.90;;;;;;5039264;28;20114;-69
2022/10/25 01:01:37;;;;;;;2.78;1.00;;;12.20;99.90;;;;;;5046807;28;20048;-69
2022/10/25 01:04:09;;;;;;;2.35;0.82;;;12.10;99.90;;;;;;5043770;28;20115;-70
2022/10/25 01:06:41;;;;;;;2.25;0.90;;;12.00;99.90;;;;;;5048041;28;20049;-70
2022/10/25 01:09:11;;;;;;;3.83;1.02;;;12.00;99.90;;;;;;5020414;28;20042;-70
2022/10/25 01:11:39;;;;;;;3.25;1.00;;;12.00;99.90;;;;;;5044720;28;20048;-69
2022/10/25 01:14:11;;;;;;;3.38;1.05;;;12.00;99.90;;;;;;5048582;28;20478;-70
2022/10/25 01:17:06;;;;;;;3.03;1.10;;;11.90;99.90;;;;;;5029986;28;20045;-69
2022/10/25 01:20:05;;;;;;;3.50;1.15;;;12.00;99.90;;;;;;5044845;28;20045;-69
2022/10/25 01:23:09;;;;;;;2.53;0.90;;;12.00;99.90;;;;;;5049961;28;20052;-70
2022/10/25 01:26:10;;;;;;;3.28;1.10;;;12.00;99.90;;;;;;5059701;28;20118;-69
2022/10/25 01:28:56;;;;;;;2.95;0.98;;;11.90;99.90;;;;;;5043935;28;20503;-70
2022/10/25 01:31:36;;;;;;;6.68;1.33;;;12.00;99.90;;;;;;5040826;28;20419;-70
2022/10/25 01:34:22;;;;;;;3.13;0.90;;;12.00;99.90;;;;;;5047359;28;20045;-70
2022/10/25 01:37:16;;;;;;;2.80;1.00;;;12.00;99.90;;;;;;5029480;28;20561;-70
2022/10/25 01:39:51;;;;;;;3.05;1.00;;;12.00;99.90;;;;;;5029998;28;20128;-70
2022/10/25 01:42:31;;;;;;;2.65;0.95;;;12.00;99.90;;;;;;5039406;28;20041;-71
2022/10/25 01:45:01;;;;;;;4.25;1.02;;;12.00;99.90;;;;;;5044804;28;20128;-70
2022/10/25 01:47:38;;;;;;;3.72;1.10;;;12.00;99.90;;;;;;5051287;28;20526;-70
2022/10/25 01:50:16;;;;;;;1.90;0.80;;;12.00;99.90;;;;;;5063937;28;20403;-70
2022/10/25 01:52:44;;;;;;;6.60;1.00;;;12.00;99.90;;;;;;5030748;28;20111;-71
2022/10/25 01:55:12;;;;;;;5.72;1.40;;;12.00;99.90;;;;;;5049011;28;20045;-70
2022/10/25 01:58:06;;;;;;;4.40;1.15;;;11.90;99.90;;;;;;5039428;28;20057;-70
2022/10/25 02:00:49;;;;;;;2.10;1.00;;;12.00;99.90;;;;;;5046697;28;20037;-72
2022/10/25 02:03:32;;;;;;;2.22;0.80;;;11.90;99.90;;;;;;5048550;28;20072;-70
2022/10/25 02:06:20;;;;;;;3.15;1.00;;;12.00;99.90;;;;;;5049260;28;20063;-70
2022/10/25 02:09:07;;;;;;;2.78;1.20;;;11.90;99.90;;;;;;5038636;28;20451;-69
2022/10/25 02:11:35;;;;;;;2.17;0.95;;;12.00;99.90;;;;;;5034269;28;20056;-69
2022/10/25 02:14:19;;;;;;;1.65;1.00;;;12.10;99.90;;;;;;5048582;28;20131;-69
2022/10/25 02:16:55;;;;;;;3.33;1.00;;;12.10;99.90;;;;;;5036505;28;20423;-70
2022/10/25 02:19:32;;;;;;;2.05;1.33;;;12.10;99.90;;;;;;5051230;28;20151;-69
2022/10/25 02:22:01;;;;;;;5.68;1.45;;;12.00;99.90;;;;;;5049159;28;20515;-70
2022/10/25 02:24:30;;;;;;;2.78;1.13;;;12.00;99.90;;;;;;5048334;28;20139;-70
2022/10/25 02:26:59;;;;;;;3.55;1.05;;;12.00;99.90;;;;;;5032980;28;20086;-71
2022/10/25 02:29:30;;;;;;;3.28;0.80;;;12.00;99.90;;;;;;5047915;28;20057;-69
2022/10/25 02:31:58;;;;;;;3.17;1.15;;;11.90;99.90;;;;;;5031714;28;20038;-70
2022/10/25 02:34:25;;;;;;;2.67;1.02;;;11.90;99.90;;;;;;5050415;28;20037;-69
2022/10/25 02:36:53;;;;;;;2.60;1.05;;;11.90;99.90;;;;;;5033693;28;20048;-70
2022/10/25 02:39:23;;;;;;;2.65;1.48;;;11.90;99.90;;;;;;5052354;28;20737;-70
2022/10/25 02:41:56;;;;;;;4.13;1.52;;;11.90;99.90;;;;;;5048018;28;20095;-71
2022/10/25 02:44:23;;;;;;;3.30;1.20;;;11.90;99.90;;;;;;5049250;28;20091;-69
2022/10/25 02:46:50;;;;;;;4.25;1.20;;;11.90;99.90;;;;;;5033091;28;20064;-70
2022/10/25 02:49:18;;;;;;;2.88;1.10;;;11.80;99.90;;;;;;5042145;28;20052;-70
2022/10/25 02:51:45;;;;;;;2.15;1.10;;;11.70;99.90;;;;;;5039182;28;20033;-70
2022/10/25 02:54:13;;;;;;;2.42;0.90;;;11.80;99.90;;;;;;5042613;28;20041;-70
2022/10/25 02:56:40;;;;;;;2.72;1.10;;;11.70;99.90;;;;;;5051817;28;20033;-69
2022/10/25 02:59:11;;;;;;;5.95;1.20;;;11.60;99.90;;;;;;5045337;28;20132;-69
2022/10/25 03:01:38;;;;;;;3.08;1.50;;;11.70;99.90;;;;;;5039211;28;20037;-69
2022/10/25 03:04:06;;;;;;;5.47;1.00;;;11.70;99.90;;;;;;5047830;28;20040;-70
2022/10/25 03:06:33;;;;;;;1.73;1.05;;;11.70;99.90;;;;;;5047498;28;20049;-69
2022/10/25 03:09:00;;;;;;;3.30;1.10;;;11.70;99.90;;;;;;5040370;28;20046;-70
2022/10/25 03:11:27;;;;;;;2.65;1.08;;;11.80;99.90;;;;;;5048911;28;20041;-70
2022/10/25 03:13:55;;;;;;;3.50;1.10;;;11.80;99.90;;;;;;5046744;28;20057;-70
2022/10/25 03:16:22;;;;;;;3.38;1.10;;;11.80;99.90;;;;;;5038947;28;20107;-71
2022/10/25 03:18:49;;;;;;;4.40;1.25;;;11.80;99.90;;;;;;5050300;28;20131;-69
2022/10/25 03:21:17;;;;;;;4.40;1.27;;;11.80;99.90;;;;;;5051167;28;20052;-69
2022/10/25 03:23:44;;;;;;;5.40;1.23;;;11.80;99.90;;;;;;5045877;28;20033;-69
2022/10/25 03:26:11;;;;;;;2.90;1.60;;;11.80;99.90;;;;;;5046858;28;20042;-70
2022/10/25 03:28:38;;;;;;;3.30;0.90;;;11.80;99.90;;;;;;5050857;28;20044;-70
2022/10/25 03:31:11;;;;;;;3.58;1.10;;;11.80;99.90;;;;;;5048897;28;20501;-70
2022/10/25 03:33:39;;;;;;;3.33;1.10;;;11.80;99.90;;;;;;5048932;28;20467;-70
2022/10/25 03:36:06;;;;;;;2.08;1.38;;;11.70;99.90;;;;;;5043428;28;20415;-70
2022/10/25 03:38:34;;;;;;;1.85;1.02;;;11.70;99.90;;;;;;5047715;28;20049;-70
2022/10/25 03:41:01;;;;;;;4.70;1.25;;;11.70;99.90;;;;;;5049438;28;20064;-68
2022/10/25 03:43:28;;;;;;;1.75;1.00;;;11.60;99.90;;;;;;5045929;28;20042;-68
2022/10/25 03:45:55;;;;;;;3.90;1.60;;;11.60;99.90;;;;;;5045194;28;20458;-69
2022/10/25 03:48:23;;;;;;;5.13;1.27;;;11.60;99.90;;;;;;5051254;28;20526;-68
2022/10/25 03:50:50;;;;;;;3.75;1.60;;;11.70;99.90;;;;;;5045070;28;20046;-69
2022/10/25 03:53:17;;;;;;;6.32;2.25;;;11.60;99.90;;;;;;5044573;28;20586;-68
2022/10/25 03:55:44;;;;;;;7.72;2.20;;;11.60;99.90;;;;;;5041002;28;20096;-69
2022/10/25 03:58:12;;;;;;;8.80;2.05;;;11.70;99.90;;;;;;5049688;28;20114;-70
2022/10/25 04:00:39;;;;;;;6.55;1.85;;;11.70;99.90;;;;;;5041754;28;20057;-71
2022/10/25 04:03:07;;;;;;;6.97;2.55;;;11.60;99.90;;;;;;5031460;28;20183;-70
2022/10/25 04:05:35;;;;;;;7.80;2.25;;;11.50;99.90;;;;;;5048042;28;20136;-69
2022/10/25 04:08:02;;;;;;;6.57;2.33;;;11.40;99.90;;;;;;5050123;28;20432;-68
2022/10/25 04:10:29;;;;;;;12.88;2.17;;;11.30;99.90;;;;;;5045558;28;20559;-69
2022/10/25 04:12:57;;;;;;;8.30;2.00;;;11.30;99.90;;;;;;5047209;28;20075;-69
2022/10/25 04:15:25;;;;;;;4.35;1.70;;;11.30;99.90;;;;;;5049199;28;20119;-71
2022/10/25 04:17:53;;;;;;;7.28;2.30;;;11.30;99.90;;;;;;5045351;28;20049;-69
2022/10/25 04:20:20;;;;;;;6.35;2.10;;;11.30;99.90;;;;;;5046692;28;20499;-69
2022/10/25 04:22:55;;;;;;;6.88;2.65;;;11.30;99.90;;;;;;5048686;28;20044;-69
2022/10/25 04:25:24;;;;;;;7.05;2.22;;;11.40;99.90;;;;;;5048819;28;20045;-69
2022/10/25 04:27:51;;;;;;;6.43;2.13;;;11.40;99.90;;;;;;5046333;28;20424;-69
2022/10/25 04:30:19;;;;;;;7.20;2.13;;;11.30;99.90;;;;;;5046158;28;20045;-69
2022/10/25 04:32:46;;;;;;;8.63;1.90;;;11.30;99.90;;;;;;5025969;28;20053;-70
2022/10/25 04:35:14;;;;;;;3.83;1.60;;;11.30;99.90;;;;;;5054769;28;20687;-69
2022/10/25 04:37:41;;;;;;;4.50;1.70;;;11.30;99.90;;;;;;5027212;28;20495;-70
2022/10/25 04:40:09;;;;;;;3.88;1.42;;;11.30;99.90;;;;;;5039538;28;20061;-69
2022/10/25 04:42:36;;;;;;;8.82;1.88;;;11.30;99.90;;;;;;5046687;28;20037;-69
2022/10/25 04:45:04;;;;;;;3.28;1.60;;;11.30;99.90;;;;;;5054937;28;20036;-70
2022/10/25 04:47:32;;;;;;;2.47;1.35;;;11.40;99.90;;;;;;5042482;28;20049;-70
2022/10/25 04:49:59;;;;;;;7.28;1.70;;;11.30;99.90;;;;;;5037359;28;20147;-70
2022/10/25 04:52:30;;;;;;;8.15;1.60;;;11.30;99.90;;;;;;5061852;28;20052;-70
2022/10/25 04:54:58;;;;;;;5.70;1.60;;;11.30;99.90;;;;;;5045581;28;20045;-69
2022/10/25 04:57:26;;;;;;;6.63;1.70;;;11.30;99.90;;;;;;5049367;28;20045;-70
2022/10/25 04:59:55;;;;;;;5.20;1.77;;;11.30;99.90;;;;;;5044185;28;20461;-69
2022/10/25 05:02:23;;;;;;;6.28;2.13;;;11.40;99.90;;;;;;5028311;28;20046;-69
2022/10/25 05:04:50;;;;;;;4.80;1.75;;;11.40;99.90;;;;;;5032754;28;20050;-69
2022/10/25 05:07:18;;;;;;;6.63;2.13;;;11.30;99.90;;;;;;5046836;28;20487;-70
2022/10/25 05:09:45;;;;;;;6.95;2.05;;;11.40;99.90;;;;;;5042906;28;20483;-69
2022/10/25 05:12:14;;;;;;;4.00;1.88;;;11.40;99.90;;;;;;5048717;28;20044;-69
2022/10/25 05:14:41;;;;;;;4.43;1.77;;;11.40;99.90;;;;;;5045330;28;20053;-71
2022/10/25 05:17:08;;;;;;;7.63;1.98;;;11.30;99.90;;;;;;5048999;28;20045;-70
2022/10/25 05:19:36;;;;;;;9.93;2.38;;;11.30;99.90;;;;;;5047795;28;20192;-70
2022/10/25 05:22:03;;;;;;;6.55;2.40;;;11.30;99.90;;;;;;5043409;28;20088;-69
2022/10/25 05:24:31;;;;;;;7.40;2.17;;;11.30;99.90;;;;;;5019460;28;20381;-69
2022/10/25 05:26:58;;;;;;;7.32;2.20;;;11.20;99.90;;;;;;5029846;28;20455;-70
2022/10/25 05:29:25;;;;;;;5.65;2.47;;;11.30;99.90;;;;;;5033476;28;20416;-70
2022/10/25 05:31:53;;;;;;;9.50;2.88;;;11.30;99.90;;;;;;5037035;28;20359;-70
2022/10/25 05:34:20;;;;;;;6.95;2.78;;;11.40;99.90;;;;;;5045006;28;20154;-70
2022/10/25 05:36:47;;;;;;;4.70;2.10;;;11.40;99.90;;;;;;5044495;28;20479;-71
2022/10/25 05:39:14;;;;;;;5.28;2.10;;;11.50;99.90;;;;;;5012836;28;20496;-70
2022/10/25 05:41:42;;;;;;;4.55;1.98;;;11.60;99.90;;;;;;5045353;28;20053;-69
2022/10/25 05:44:09;;;;;;;5.00;1.98;;;11.70;99.90;;;;;;5041902;28;20040;-69
2022/10/25 05:46:36;;;;;;;11.90;2.42;;;11.70;99.90;;;;;;5052453;28;20047;-69
2022/10/25 05:49:04;;;;;;;4.85;1.67;;;11.80;99.90;;;;;;5031880;28;20057;-70
2022/10/25 05:51:32;;;;;;;4.95;2.17;;;11.80;99.90;;;;;;5033533;28;20057;-68
2022/10/25 05:54:05;;;;;;;6.25;2.05;;;11.80;99.90;;;;;;5035630;28;20045;-69
2022/10/25 05:56:33;;;;;;;4.68;1.80;;;11.90;99.90;;;;;;5029697;28;20584;-69
2022/10/25 05:59:08;;;;;;;4.75;2.13;;;11.90;99.90;;;;;;5049660;28;20114;-68
2022/10/25 06:01:38;;;;;;;6.00;1.75;;;12.00;99.90;;;;;;5046363;28;20034;-69
2022/10/25 06:04:06;;;;;;;8.82;2.00;;;12.00;99.90;;;;;;5048284;28;20107;-70
2022/10/25 06:06:35;;;;;;;4.50;2.20;;;12.00;99.90;;;;;;5042236;28;20492;-69
2022/10/25 06:09:03;;;;;;;7.13;2.80;;;12.10;99.90;;;;;;5048713;28;20069;-69
2022/10/25 06:11:31;;;;;;;5.13;2.50;;;12.10;99.90;;;;;;5047198;28;20059;-69
2022/10/25 06:13:58;;;;;;;5.60;2.22;;;12.10;99.90;;;;;;5040925;28;20546;-69
2022/10/25 06:16:26;;;;;;;10.10;4.53;;;12.10;99.90;;;;;;5040129;28;20057;-69
2022/10/25 06:18:53;;;;;;;6.13;3.47;;;12.10;99.90;;;;;;5048339;28;20053;-68
2022/10/25 06:21:23;;;;;;;8.05;2.75;;;12.30;99.90;;;;;;5039556;28;20575;-69
2022/10/25 06:23:51;;;;;;;7.50;2.50;;;12.20;99.90;;;;;;5038999;28;20432;-69
2022/10/25 06:26:24;;;;;;;5.75;2.33;;;12.30;99.90;;;;;;5035503;28;20400;-69
2022/10/25 06:28:56;;;;;;;6.68;2.45;;;12.30;99.90;;;;;;5011747;28;20179;-69
2022/10/25 06:31:23;;;;;;;6.90;2.90;;;12.30;99.90;;;;;;5033748;28;20049;-69
2022/10/25 06:33:51;;;;;;;6.72;3.03;;;12.40;99.90;;;;;;5047473;28;20041;-68
2022/10/25 06:36:21;;;;;;;7.60;3.08;;;12.50;99.90;;;;;;5031662;28;20059;-69
2022/10/25 06:38:49;;;;;;;8.60;2.65;;;12.50;99.90;;;;;;5030741;28;20454;-69
2022/10/25 06:41:19;;;;;;;13.15;3.28;;;12.50;99.90;;;;;;5014360;28;20399;-69
2022/10/25 06:43:47;;;;;;;7.32;3.00;;;12.50;99.90;;;;;;5039594;28;20050;-69
2022/10/25 06:46:26;;;;;;;8.70;2.95;;;12.50;99.90;;;;;;5058490;28;20044;-69
2022/10/25 06:48:56;;;;;;;11.20;3.10;;;12.50;99.90;;;;;;5037714;28;20044;-69
2022/10/25 06:51:24;;;;;;;11.38;3.22;;;12.50;99.90;;;;;;5047337;28;20049;-69
2022/10/25 06:53:56;;;;;;;15.23;3.28;;;12.60;99.90;;;;;;5044738;28;20097;-69
2022/10/25 06:56:25;;;;;;;10.13;3.20;;;12.60;99.90;;;;;;5061821;28;20179;-68
2022/10/25 06:58:53;;;;;;;12.07;3.40;;;12.50;99.90;;;;;;5060374;28;20063;-69
2022/10/25 07:01:22;;;;;;;11.07;3.38;;;12.60;99.90;;;;;;5039098;28;20045;-69
2022/10/25 07:03:52;;;;;;;9.77;3.33;;;12.60;99.90;;;;;;5040146;28;20116;-68
2022/10/25 07:06:28;;;;;;;9.63;3.13;;;12.70;99.90;;;;;;5043385;28;20572;-69
2022/10/25 07:08:59;;;;;;;8.15;2.72;;;12.70;99.90;;;;;;5039118;28;20573;-70
2022/10/25 07:11:29;;;;;;;6.55;2.50;;;12.70;99.90;;;;;;5044976;28;20045;-69
2022/10/25 07:13:58;;;;;;;8.48;2.60;;;12.80;99.90;;;;;;5045595;28;20041;-69
2022/10/25 07:16:26;;;;;;;7.35;2.60;;;12.80;99.90;;;;;;5006730;28;20471;-68
2022/10/25 07:18:59;;;;;;;12.35;2.88;;;12.90;99.90;;;;;;5046407;28;20496;-70
2022/10/25 07:21:28;;;;;;;11.70;4.20;;;13.00;99.90;;;;;;5045254;28;20044;-69
2022/10/25 07:23:56;;;;;;;7.60;3.88;;;13.10;99.90;;;;;;5027535;28;20042;-68
2022/10/25 07:26:26;;;;;;;8.05;3.22;;;13.10;99.90;;;;;;5044067;28;20621;-69
2022/10/25 07:28:55;;;;;;;12.07;2.88;;;13.20;99.90;;;;;;5039458;28;20386;-69
2022/10/25 07:31:28;;;;;;;7.55;3.13;;;13.20;99.90;;;;;;5046245;28;20046;-69
2022/10/25 07:33:58;;;;;;;10.98;3.17;;;13.40;99.90;;;;;;5037827;28;20052;-69
2022/10/25 07:36:26;;;;;;;8.20;2.97;;;13.50;99.90;;;;;;5047729;28;20049;-69
2022/10/25 07:38:53;;;;;;;6.28;2.92;;;13.50;99.90;;;;;;5046262;28;20391;-69
2022/10/25 07:41:21;;;;;;;5.30;2.45;;;13.60;99.90;;;;;;5032823;28;20048;-69
2022/10/25 07:43:48;;;;;;;6.32;3.17;;;13.50;99.90;;;;;;5040568;28;20055;-69
2022/10/25 07:46:16;;;;;;;8.68;2.78;;;13.40;99.90;;;;;;5051258;28;20602;-70
2022/10/25 07:48:43;;;;;;;7.35;2.72;;;13.40;99.90;;;;;;5022412;28;20189;-70
2022/10/25 07:51:13;;;;;;;9.98;2.42;;;13.40;99.90;;;;;;5047490;28;20053;-68
2022/10/25 07:53:40;;;;;;;6.13;2.47;;;13.50;99.90;;;;;;5051508;28;20056;-69
2022/10/25 07:56:16;;;;;;;6.43;2.75;;;13.40;99.90;;;;;;5014480;28;20055;-70
2022/10/25 07:58:50;;;;;;;7.78;3.10;;;13.50;99.90;;;;;;5048881;28;20080;-69
2022/10/25 08:01:26;;;;;;;10.52;2.72;;;13.50;99.90;;;;;;5023129;28;20456;-70
2022/10/25 08:03:54;;;;;;;6.30;2.60;;;13.60;99.90;;;;;;5036515;28;20052;-69
2022/10/25 08:06:23;;;;;;;10.43;2.42;;;13.70;99.90;;;;;;5045701;28;20045;-70
2022/10/25 08:08:50;;;;;;;6.80;2.50;;;13.70;99.90;;;;;;5033772;28;20041;-70
2022/10/25 08:11:18;;;;;;;5.40;2.05;;;13.80;99.90;;;;;;5042691;28;20049;-70
2022/10/25 08:13:49;;;;;;;7.32;2.05;;;13.90;99.90;;;;;;5045002;28;20107;-69
2022/10/25 08:16:16;;;;;;;8.68;2.35;;;13.90;99.90;;;;;;5039301;28;20049;-69
2022/10/25 08:18:44;;;;;;;8.00;2.42;;;14.10;99.90;;;;;;5040215;28;20139;-69
2022/10/25 08:21:11;;;;;;;11.00;2.20;;;14.10;99.90;;;;;;5047725;28;20541;-69
2022/10/25 08:23:38;;;;;;;8.77;2.05;;;14.20;99.90;;;;;;5043644;28;20456;-68
2022/10/25 08:26:06;;;;;;;6.20;2.20;;;14.30;99.90;;;;;;5050180;28;20533;-69
2022/10/25 08:28:33;;;;;;;10.73;2.10;;;14.40;99.90;;;;;;5037522;28;20053;-70
2022/10/25 08:31:00;;;;;;;4.88;1.83;;;14.40;99.90;;;;;;5054394;28;20102;-69
2022/10/25 08:33:28;;;;;;;8.05;2.22;;;14.50;99.90;;;;;;5043762;28;20056;-68
2022/10/25 08:35:59;;;;;;;8.32;2.67;;;14.50;99.90;;;;;;5039562;28;20072;-68
2022/10/25 08:38:27;;;;;;;8.60;2.10;;;14.60;99.90;;;;;;5047273;28;20450;-70
2022/10/25 08:41:08;;;;;;;6.07;2.40;;;14.70;99.90;;;;;;5035674;28;20045;-69
2022/10/25 08:44:02;;;;;;;5.87;1.90;;;14.90;99.90;;;;;;5042719;28;20397;-70
2022/10/25 08:46:42;;;;;;;6.10;2.00;;;14.90;99.90;;;;;;5055261;28;20033;-69
2022/10/25 08:49:20;;;;;;;5.43;2.15;;;15.00;99.90;;;;;;5036471;28;20059;-69
2022/10/25 08:51:52;;;;;;;10.60;2.25;;;15.00;99.90;;;;;;5031652;28;20042;-69
2022/10/25 08:54:26;;;;;;;7.10;1.92;;;15.10;99.90;;;;;;5036558;28;20455;-69
2022/10/25 08:57:26;;;;;;;7.25;2.22;;;15.10;99.90;;;;;;5035085;28;20053;-69
2022/10/25 08:59:57;;;;;;;10.35;2.10;;;15.20;99.90;;;;;;5045523;28;20056;-70
2022/10/25 09:02:50;;;;;;;7.55;2.00;;;15.10;99.90;;;;;;5037195;28;20513;-69
2022/10/25 09:06:04;;;;;;;7.50;2.20;;;15.20;99.90;;;;;;5049098;28;20052;-69
2022/10/25 09:08:37;;;;;;;4.82;2.08;;;15.30;99.90;;;;;;4978989;28;20100;-69
2022/10/25 09:11:30;;;;;;;5.75;2.00;;;15.40;99.90;;;;;;5006751;28;20073;-69
2022/10/25 09:14:06;;;;;;;6.03;1.92;;;15.50;99.90;;;;;;5006175;28;20536;-69
2022/10/25 09:17:06;;;;;;;5.85;2.20;;;15.70;99.90;;;;;;4987473;28;20153;-69
2022/10/25 09:19:44;;;;;;;5.25;2.10;;;15.80;99.90;;;;;;4990179;28;20092;-71
2022/10/25 09:22:25;;;;;;;11.52;2.65;;;15.90;99.90;;;;;;5001071;28;20050;-69
2022/10/25 09:25:18;;;;;;;7.15;2.35;;;15.90;99.90;;;;;;5002160;28;20043;-69
2022/10/25 09:27:57;;;;;;;5.47;1.90;;;15.90;99.90;;;;;;4999977;28;20042;-68
2022/10/25 09:30:28;;;;;;;7.72;2.10;;;15.90;99.90;;;;;;4988874;28;20050;-69
2022/10/25 09:33:01;;;;;;;8.35;2.25;;;16.00;99.90;;;;;;5000836;28;20405;-70
2022/10/25 09:35:40;;;;;;;7.57;1.90;;;16.00;99.90;;;;;;5003769;28;20045;-69
2022/10/25 09:38:18;;;;;;;7.18;2.05;;;16.10;99.90;;;;;;4974688;28;20085;-69
2022/10/25 09:40:49;;;;;;;6.30;2.20;;;16.20;99.90;;;;;;5007902;28;20520;-69
2022/10/25 09:43:22;;;;;;;10.73;2.58;;;16.30;99.90;;;;;;4991548;28;20041;-69
2022/10/25 09:45:56;;;;;;;8.63;2.40;;;16.40;99.90;;;;;;5050804;28;20473;-69
2022/10/25 09:48:37;;;;;;;6.32;2.20;;;16.50;99.90;;;;;;5025438;28;20038;-70
2022/10/25 09:51:13;;;;;;;5.72;2.22;;;16.70;99.90;;;;;;5040578;28;20060;-71
2022/10/25 09:53:43;;;;;;;7.40;2.22;;;17.10;99.90;;;;;;5033620;28;20071;-70
2022/10/25 09:56:11;;;;;;;7.63;2.22;;;17.10;99.90;;;;;;5059972;28;20391;-69
2022/10/25 09:58:46;;;;;;;6.68;2.33;;;16.90;99.90;;;;;;5036822;28;20037;-68
2022/10/25 10:01:20;;;;;;;5.68;1.83;;;16.90;99.90;;;;;;5035061;28;20135;-68
2022/10/25 10:03:47;;;;;;;7.25;1.90;;;16.70;99.90;;;;;;5048766;28;20040;-69
2022/10/25 10:06:23;;;;;;;7.00;2.13;;;16.60;99.90;;;;;;5040256;28;20124;-69
2022/10/25 10:08:53;;;;;;;4.97;2.22;;;16.60;99.90;;;;;;5038662;28;20041;-70
2022/10/25 10:11:20;;;;;;;5.38;2.20;;;16.40;99.90;;;;;;5045851;28;20095;-69
2022/10/25 10:13:54;;;;;;;5.50;2.20;;;16.50;99.90;;;;;;5043482;28;20045;-69
2022/10/25 10:16:37;;;;;;;8.15;2.42;;;16.60;99.90;;;;;;5042305;28;20045;-69
2022/10/25 10:19:18;;;;;;;9.15;2.15;;;16.70;99.90;;;;;;5044877;28;20126;-70
2022/10/25 10:21:48;;;;;;;7.43;2.20;;;16.60;99.90;;;;;;5029610;28;20464;-69
2022/10/25 10:24:21;;;;;;;10.32;3.63;;;16.50;99.90;;;;;;5047139;28;20049;-70
2022/10/25 10:26:54;;;;;;;7.72;2.58;;;16.60;99.90;;;;;;5028378;28;20740;-70
2022/10/25 10:29:22;;;;;;;6.78;2.10;;;16.70;99.90;;;;;;5046857;28;20036;-69
2022/10/25 10:31:52;;;;;;;7.47;2.13;;;16.70;99.90;;;;;;5047449;28;20062;-69
2022/10/25 10:34:49;;;;;;;6.20;2.20;;;16.70;99.90;;;;;;5049856;28;20555;-70
2022/10/25 10:37:27;;;;;;;8.20;2.30;;;16.70;99.90;;;;;;5052316;28;20535;-69
2022/10/25 10:40:00;;;;;;;6.60;2.05;;;16.90;99.90;;;;;;5051915;28;20508;-69
2022/10/25 10:42:31;;;;;;;4.75;2.08;;;17.00;99.90;;;;;;5047163;28;20041;-70
2022/10/25 10:45:14;;;;;;;7.13;2.72;;;17.10;99.90;;;;;;5045720;28;20483;-70
2022/10/25 10:47:53;;;;;;;7.82;2.53;;;17.30;99.90;;;;;;5026516;28;20075;-70
2022/10/25 10:50:24;;;;;;;9.65;2.40;;;17.70;99.90;;;;;;5047201;28;20077;-70
2022/10/25 10:53:01;;;;;;;7.35;2.35;;;17.90;99.90;;;;;;5035349;28;20079;-71
2022/10/25 10:55:32;;;;;;;8.40;2.78;;;17.70;99.90;;;;;;5042384;28;20060;-69
2022/10/25 10:58:03;;;;;;;5.50;2.63;;;17.70;99.90;;;;;;5038290;28;20072;-71
2022/10/25 11:00:32;;;;;;;5.63;2.08;;;17.80;99.90;;;;;;5055014;28;20045;-70
2022/10/25 11:02:59;;;;;;;4.93;2.10;;;18.00;99.90;;;;;;5044372;28;20137;-73
2022/10/25 11:05:31;;;;;;;6.03;2.33;;;18.20;99.90;;;;;;5047535;28;20056;-70
2022/10/25 11:08:01;;;;;;;9.35;2.97;;;18.30;99.90;;;;;;5051160;28;20083;-70
2022/10/25 11:10:33;;;;;;;6.25;2.30;;;18.90;99.90;;;;;;5027658;28;20045;-72
2022/10/25 11:13:03;;;;;;;6.65;2.50;;;18.70;99.90;;;;;;5050659;28;20045;-71
2022/10/25 11:15:52;;;;;;;8.98;2.80;;;18.40;99.90;;;;;;5046975;28;20356;-69
2022/10/25 11:18:40;;;;;;;7.32;3.08;;;18.10;99.90;;;;;;5061822;28;20114;-74
2022/10/25 11:21:25;;;;;;;7.25;2.47;;;18.10;99.90;;;;;;5051270;28;20115;-71
2022/10/25 11:24:33;;;;;;;11.18;2.83;;;18.20;99.90;;;;;;5047669;28;20045;-70
2022/10/25 11:27:04;;;;;;;6.18;2.58;;;18.10;99.90;;;;;;5038961;28;20056;-69
2022/10/25 11:30:09;;;;;;;6.28;2.33;;;18.40;99.90;;;;;;5045719;28;20079;-70
2022/10/25 11:33:15;;;;;;;6.03;2.20;;;18.70;99.90;;;;;;5007435;28;20061;-72
2022/10/25 11:36:12;;;;;;;10.00;3.05;;;19.50;99.90;;;;;;4992406;28;20053;-70
2022/10/25 11:38:45;;;;;;;4.15;2.42;;;20.10;99.90;;;;;;5009007;28;20500;-70
2022/10/25 11:41:44;;;;;;;6.50;2.60;;;20.00;99.90;;;;;;5009229;28;20109;-74
2022/10/25 11:44:40;;;;;;;4.95;2.50;;;19.60;99.90;;;;;;5006273;28;20504;-71
2022/10/25 11:47:28;;;;;;;5.78;2.85;;;19.10;99.90;;;;;;4991557;28;20141;-71
2022/10/25 11:50:27;;;;;;;7.68;2.65;;;19.20;99.90;;;;;;4989197;28;20411;-70
2022/10/25 11:53:24;;;;;;;6.72;2.70;;;19.60;99.90;;;;;;5007245;28;20495;-70
2022/10/25 11:56:32;;;;;;;6.03;3.13;;;19.50;99.90;;;;;;4988981;28;20253;-70
2022/10/25 11:59:17;;;;;;;5.88;2.80;;;19.50;99.90;;;;;;4990483;28;20077;-70
2022/10/25 12:01:59;;;;;;;5.05;2.78;;;19.20;99.90;;;;;;5006969;28;20046;-69
2022/10/25 12:05:08;;;;;;;6.53;3.25;;;19.00;99.90;;;;;;4993051;28;20202;-74
2022/10/25 12:08:10;;;;;;;6.18;2.60;;;18.80;99.90;;;;;;5057526;28;20077;-70
2022/10/25 12:10:53;;;;;;;5.43;2.85;;;18.50;99.90;;;;;;5056662;28;20045;-73
2022/10/25 12:13:39;;;;;;;7.60;2.88;;;18.90;99.90;;;;;;5050931;28;20052;-69
2022/10/25 12:16:13;;;;;;;6.32;2.78;;;20.60;99.90;;;;;;5046684;28;20521;-69
2022/10/25 12:19:07;;;;;;;6.20;2.92;;;22.30;99.90;;;;;;5034284;28;20053;-71
2022/10/25 12:21:42;;;;;;;4.80;3.50;;;23.70;99.90;;;;;;5037249;28;20052;-70
2022/10/25 12:24:19;;;;;;;5.40;3.53;;;24.90;99.90;;;;;;5048571;28;20048;-70
2022/10/25 12:26:50;;;;;;;4.40;3.47;;;24.90;99.90;;;;;;5058781;28;20041;-73
2022/10/25 12:29:28;;;;;;;6.35;3.58;;;23.60;99.90;;;;;;5050845;28;20041;-69
2022/10/25 12:31:59;;;;;;;6.07;3.60;;;22.70;99.90;;;;;;5042699;28;20069;-70
2022/10/25 12:34:48;;;;;;;5.50;3.58;;;23.20;99.90;;;;;;5046278;28;20049;-70
2022/10/25 12:37:18;;;;;;;6.28;4.07;;;22.20;99.90;;;;;;5048036;28;20412;-69
2022/10/25 12:39:46;;;;;;;7.05;3.78;;;20.70;99.90;;;;;;5047955;28;20087;-69
2022/10/25 12:42:16;;;;;;;6.53;3.60;;;19.60;99.90;;;;;;5048735;28;20132;-69
2022/10/25 12:45:22;;;;;;;5.45;3.67;;;18.70;99.90;;;;;;5051562;28;20040;-70
2022/10/25 12:48:26;;;;;;;4.28;3.88;;;18.20;99.90;;;;;;5043187;28;20052;-69
2022/10/25 12:50:56;;;;;;;5.07;3.00;;;18.20;99.90;;;;;;5046214;28;20044;-69
2022/10/25 12:53:47;;;;;;;5.68;3.60;;;20.10;99.90;;;;;;5046999;28;20041;-69
2022/10/25 12:56:41;;;;;;;6.07;3.67;;;23.00;99.90;;;;;;5050051;28;20561;-71
2022/10/25 12:59:31;;;;;;;4.22;3.50;;;25.40;99.90;;;;;;5045596;28;20069;-73
2022/10/25 13:02:01;;;;;;;5.15;3.70;;;27.00;99.90;;;;;;5039178;28;20046;-70
2022/10/25 13:04:38;;;;;;;8.73;4.30;;;27.50;99.90;;;;;;5037338;28;20076;-71
2022/10/25 13:07:06;;;;;;;6.07;4.10;;;26.80;99.90;;;;;;5042495;28;20045;-69
2022/10/25 13:09:36;;;;;;;6.65;4.10;;;28.20;99.90;;;;;;5040365;28;20049;-68
2022/10/25 13:12:29;;;;;;;7.97;4.38;;;27.70;99.90;;;;;;5044624;28;20044;-70
2022/10/25 13:14:58;;;;;;;7.50;4.78;;;27.30;99.90;;;;;;5049286;28;20442;-70
2022/10/25 13:17:25;;;;;;;9.38;4.80;;;26.10;99.90;;;;;;5049889;28;20086;-70
2022/10/25 13:20:13;;;;;;;6.35;4.63;;;26.50;99.90;;;;;;5046651;28;20053;-69